Time;durP1;ratioP1;P1;durP2;ratioP2;P2;SDS_P1;SDS_P2;PMS_P1;PMS_P2;Temp;Humidity;BMP_temperature;BMP_pressure;BME280_temperature;BME280_humidity;BME280_pressure;Samples;Min_cycle;Max_cycle;Signal;HPM_P1;HPM_P2
2022/09/03 00:01:57;;;;;;;;;6.00;6.00;30.30;99.90;;;;;;4946374;28;8839;-67
2022/09/03 00:04:45;;;;;;;;;6.80;6.00;30.30;99.90;;;;;;4947850;28;8901;-68
2022/09/03 00:07:30;;;;;;;;;4.00;4.00;30.30;99.90;;;;;;4946710;28;8861;-66
2022/09/03 00:10:07;;;;;;;;;6.00;6.00;30.60;99.90;;;;;;4945417;28;8897;-67
2022/09/03 00:12:41;;;;;;;;;5.00;5.00;30.50;99.90;;;;;;4948651;28;8847;-68
2022/09/03 00:15:23;;;;;;;;;4.80;4.80;30.40;99.90;;;;;;4938349;28;8884;-67
2022/09/03 00:18:05;;;;;;;;;6.00;6.00;30.40;99.90;;;;;;4945884;28;9565;-68
2022/09/03 00:20:48;;;;;;;;;7.00;7.00;30.20;99.90;;;;;;4948470;28;8850;-69
2022/09/03 00:23:23;;;;;;;;;6.40;6.40;30.10;99.90;;;;;;4973723;28;8834;-66
2022/09/03 00:26:11;;;;;;;;;4.40;4.40;30.10;99.90;;;;;;4976029;28;9867;-65
2022/09/03 00:28:51;;;;;;;;;6.60;6.60;30.00;99.90;;;;;;4947453;28;8854;-68
2022/09/03 00:31:37;;;;;;;;;6.20;6.20;29.90;99.90;;;;;;4949086;28;8855;-70
2022/09/03 00:34:26;;;;;;;;;7.00;7.00;29.90;99.90;;;;;;4947619;28;8847;-65
2022/09/03 00:36:57;;;;;;;;;4.00;4.00;29.90;99.90;;;;;;4947653;28;8814;-66
2022/09/03 00:39:30;;;;;;;;;6.20;6.20;29.80;99.90;;;;;;4943949;28;9734;-65
2022/09/03 00:42:15;;;;;;;;;5.40;5.40;29.80;99.90;;;;;;4949526;28;8846;-64
2022/09/03 00:45:01;;;;;;;;;4.40;4.40;29.80;99.90;;;;;;4950787;28;8858;-69
2022/09/03 00:48:13;;;;;;;;;5.80;5.80;29.80;99.90;;;;;;4945059;28;8839;-67
2022/09/03 00:51:11;;;;;;;;;6.20;6.20;29.70;99.90;;;;;;4948690;28;9215;-69
2022/09/03 00:54:10;;;;;;;;;6.00;6.00;29.50;99.90;;;;;;4962148;28;8889;-68
2022/09/03 00:57:24;;;;;;;;;5.40;5.40;29.60;99.90;;;;;;4946851;28;8843;-68
2022/09/03 01:00:18;;;;;;;;;6.00;6.00;29.60;99.90;;;;;;4931153;28;8846;-64
2022/09/03 01:03:11;;;;;;;;;7.40;7.40;29.50;99.90;;;;;;4960579;28;8863;-66
2022/09/03 01:06:24;;;;;;;;;4.00;4.00;29.50;99.90;;;;;;4947892;28;8858;-65
2022/09/03 01:09:28;;;;;;;;;5.40;5.40;29.40;99.90;;;;;;4947110;28;8830;-68
2022/09/03 01:12:31;;;;;;;;;5.00;5.00;29.40;99.90;;;;;;4935133;28;8855;-68
2022/09/03 01:15:13;;;;;;;;;4.00;4.00;29.40;99.90;;;;;;4948234;28;8866;-68
2022/09/03 01:18:02;;;;;;;;;4.60;4.60;29.30;99.90;;;;;;4944423;28;9001;-68
2022/09/03 01:21:04;;;;;;;;;6.20;6.20;29.30;99.90;;;;;;4945136;28;8905;-66
2022/09/03 01:24:06;;;;;;;;;7.20;6.60;29.30;99.90;;;;;;4948226;28;9237;-66
2022/09/03 01:26:53;;;;;;;;;6.00;6.00;29.20;99.90;;;;;;4947513;28;8889;-68
2022/09/03 01:29:53;;;;;;;;;7.00;7.00;29.20;99.90;;;;;;4948767;28;8871;-68
2022/09/03 01:32:35;;;;;;;;;8.00;6.00;29.20;99.90;;;;;;4948939;28;9490;-68
2022/09/03 01:35:19;;;;;;;;;6.00;6.00;29.20;99.90;;;;;;4948033;28;9682;-65
2022/09/03 01:38:09;;;;;;;;;5.60;5.60;29.20;99.90;;;;;;4943472;28;8854;-65
2022/09/03 01:42:12;;;;;;;;;6.40;6.40;29.10;99.90;;;;;;4943540;28;9625;-65
2022/09/03 01:44:12;;;;;;;;;8.60;8.60;29.10;99.90;;;;;;4944464;28;8913;-65
2022/09/03 01:46:47;;;;;;;;;7.80;7.80;29.10;99.90;;;;;;4946032;28;8897;-65
2022/09/03 01:49:37;;;;;;;;;9.20;9.20;29.00;99.90;;;;;;4946406;28;9540;-68
2022/09/03 01:52:31;;;;;;;;;6.20;6.20;29.00;99.90;;;;;;4956791;28;8996;-69
2022/09/03 01:55:43;;;;;;;;;7.60;7.60;29.00;99.90;;;;;;4926544;28;8894;-65
2022/09/03 01:58:21;;;;;;;;;8.20;8.20;28.90;99.90;;;;;;4945988;28;8851;-68
2022/09/03 02:01:00;;;;;;;;;7.00;7.00;28.80;99.90;;;;;;4946866;28;8871;-69
2022/09/03 02:03:41;;;;;;;;;6.80;6.80;28.80;99.90;;;;;;4944692;28;8977;-68
2022/09/03 02:06:14;;;;;;;;;7.20;7.20;28.80;99.90;;;;;;4942782;28;8914;-68
2022/09/03 02:08:46;;;;;;;;;6.40;6.40;28.80;99.90;;;;;;4947401;28;8889;-70
2022/09/03 02:11:17;;;;;;;;;8.80;8.80;28.70;99.90;;;;;;4944793;28;9747;-70
2022/09/03 02:13:56;;;;;;;;;7.00;7.00;28.70;99.90;;;;;;4946228;28;9659;-71
2022/09/03 02:16:33;;;;;;;;;8.00;8.00;28.70;99.90;;;;;;4928933;28;10018;-68
2022/09/03 02:19:10;;;;;;;;;7.60;7.60;28.70;99.90;;;;;;4961727;28;8889;-65
2022/09/03 02:21:51;;;;;;;;;8.60;8.60;28.70;99.90;;;;;;4960469;28;8841;-65
2022/09/03 02:24:24;;;;;;;;;7.20;7.20;28.60;99.90;;;;;;4948162;28;8953;-66
2022/09/03 02:26:58;;;;;;;;;7.40;7.40;28.50;99.90;;;;;;4947328;28;8878;-66
2022/09/03 02:29:30;;;;;;;;;8.80;8.80;28.50;99.90;;;;;;4946333;28;8879;-66
2022/09/03 02:32:03;;;;;;;;;8.40;8.40;28.50;99.90;;;;;;4944309;28;8981;-65
2022/09/03 02:34:37;;;;;;;;;7.00;7.00;28.50;99.90;;;;;;4971470;28;8888;-69
2022/09/03 02:37:18;;;;;;;;;8.40;7.80;28.40;99.90;;;;;;4928605;28;9625;-67
2022/09/03 02:39:51;;;;;;;;;7.40;7.40;28.50;99.90;;;;;;4945067;28;8878;-66
2022/09/03 02:42:25;;;;;;;;;7.60;7.60;28.40;99.90;;;;;;4974231;28;8878;-66
2022/09/03 02:45:04;;;;;;;;;8.00;8.00;28.30;99.90;;;;;;4960347;28;8858;-66
2022/09/03 02:47:40;;;;;;;;;9.40;9.40;28.30;99.90;;;;;;4942368;28;8883;-65
2022/09/03 02:50:11;;;;;;;;;9.80;8.40;28.30;99.90;;;;;;4959621;28;8886;-65
2022/09/03 02:52:43;;;;;;;;;8.40;7.60;28.20;99.90;;;;;;4944986;28;8851;-66
2022/09/03 02:55:15;;;;;;;;;8.40;8.40;28.20;99.90;;;;;;4944841;28;8870;-65
2022/09/03 02:57:52;;;;;;;;;7.00;7.00;28.20;99.90;;;;;;4941999;28;8858;-66
2022/09/03 03:00:23;;;;;;;;;7.00;7.00;28.20;99.90;;;;;;4971727;28;8867;-68
2022/09/03 03:02:58;;;;;;;;;7.00;7.00;28.20;99.90;;;;;;4940577;28;8878;-67
2022/09/03 03:05:50;;;;;;;;;6.60;6.60;28.10;99.90;;;;;;4947396;28;11036;-69
2022/09/03 03:08:29;;;;;;;;;7.40;7.40;28.10;99.90;;;;;;4944692;28;8855;-65
2022/09/03 03:11:01;;;;;;;;;6.60;6.60;28.20;99.90;;;;;;4942876;28;8887;-66
2022/09/03 03:13:37;;;;;;;;;7.00;6.00;28.10;99.90;;;;;;4943740;28;8878;-70
2022/09/03 03:16:07;;;;;;;;;7.60;7.60;28.10;99.90;;;;;;4947801;28;8847;-68
2022/09/03 03:18:39;;;;;;;;;7.60;7.60;28.00;99.90;;;;;;4949297;28;8875;-68
2022/09/03 03:21:13;;;;;;;;;6.00;6.00;27.90;99.90;;;;;;4946797;28;8839;-68
2022/09/03 03:23:44;;;;;;;;;5.00;5.00;27.90;99.90;;;;;;4945874;28;10155;-66
2022/09/03 03:26:18;;;;;;;;;6.00;6.00;27.90;99.90;;;;;;4947372;28;8871;-65
2022/09/03 03:28:49;;;;;;;;;7.20;7.20;28.00;99.90;;;;;;4948371;28;10097;-69
2022/09/03 03:31:21;;;;;;;;;8.00;8.00;27.90;99.90;;;;;;4979962;28;8859;-67
2022/09/03 03:33:57;;;;;;;;;7.00;7.00;27.90;99.90;;;;;;4948569;28;9668;-65
2022/09/03 03:36:30;;;;;;;;;5.00;5.00;27.80;99.90;;;;;;4949924;28;8881;-66
2022/09/03 03:39:02;;;;;;;;;5.00;5.00;27.80;99.90;;;;;;4948614;28;8850;-66
2022/09/03 03:41:34;;;;;;;;;5.80;5.80;27.80;99.90;;;;;;4947960;28;8867;-64
2022/09/03 03:44:06;;;;;;;;;6.00;6.00;27.80;99.90;;;;;;4962593;28;9682;-68
2022/09/03 03:46:39;;;;;;;;;7.00;7.00;27.80;99.90;;;;;;4944844;28;8879;-68
2022/09/03 03:49:14;;;;;;;;;6.80;6.80;27.80;99.90;;;;;;4946068;28;8889;-66
2022/09/03 03:51:44;;;;;;;;;7.00;7.00;27.80;99.90;;;;;;4946687;28;8796;-65
2022/09/03 03:54:17;;;;;;;;;6.20;6.20;27.80;99.90;;;;;;4946961;28;8843;-66
2022/09/03 03:56:49;;;;;;;;;5.60;5.60;27.70;99.90;;;;;;4962233;28;8905;-65
2022/09/03 03:59:24;;;;;;;;;6.00;6.00;27.70;99.90;;;;;;4948322;28;8846;-69
2022/09/03 04:01:56;;;;;;;;;8.60;8.60;27.60;99.90;;;;;;4931847;28;8871;-69
2022/09/03 04:04:26;;;;;;;;;7.00;7.00;27.60;99.90;;;;;;4947179;28;8913;-68
2022/09/03 04:06:57;;;;;;;;;5.40;5.40;27.60;99.90;;;;;;4945487;28;8858;-68
2022/09/03 04:09:30;;;;;;;;;6.80;6.80;27.60;99.90;;;;;;4944520;28;8901;-68
2022/09/03 04:12:02;;;;;;;;;6.60;6.60;27.50;99.90;;;;;;4944551;28;8858;-69
2022/09/03 04:14:32;;;;;;;;;6.40;6.40;27.60;99.90;;;;;;4943587;28;8889;-69
2022/09/03 04:17:04;;;;;;;;;6.00;6.00;27.50;99.90;;;;;;4947238;28;8847;-69
2022/09/03 04:19:35;;;;;;;;;5.40;5.40;27.50;99.90;;;;;;4946229;28;8993;-66
2022/09/03 04:22:04;;;;;;;;;5.40;5.40;27.50;99.90;;;;;;4930637;28;8874;-65
2022/09/03 04:24:37;;;;;;;;;6.20;6.20;27.50;99.90;;;;;;4945529;28;8885;-64
2022/09/03 04:27:07;;;;;;;;;5.20;5.20;27.50;99.90;;;;;;4947311;28;8885;-65
2022/09/03 04:29:38;;;;;;;;;5.20;5.20;27.40;99.90;;;;;;4960991;28;8909;-65
2022/09/03 04:34:59;;;;;;;;;7.00;5.40;27.30;99.90;;;;;;4944722;28;8843;-64
2022/09/03 04:37:35;;;;;;;;;5.80;5.80;27.30;99.90;;;;;;4945274;28;8897;-65
2022/09/03 04:40:05;;;;;;;;;5.00;5.00;27.30;99.90;;;;;;4947597;28;8891;-68
2022/09/03 04:42:39;;;;;;;;;6.00;6.00;27.30;99.90;;;;;;4946217;28;9843;-68
2022/09/03 04:45:11;;;;;;;;;6.20;6.20;27.30;99.90;;;;;;4946345;28;8885;-68
2022/09/03 04:47:42;;;;;;;;;6.00;6.00;27.30;99.90;;;;;;4948291;28;8843;-69
2022/09/03 04:50:14;;;;;;;;;5.20;5.20;27.30;99.90;;;;;;4964361;28;8823;-68
2022/09/03 04:52:45;;;;;;;;;5.80;5.80;27.30;99.90;;;;;;4950943;28;8893;-69
2022/09/03 04:55:18;;;;;;;;;6.00;6.00;27.30;99.90;;;;;;4948360;28;8871;-64
2022/09/03 04:57:49;;;;;;;;;6.40;6.40;27.20;99.90;;;;;;4947973;28;8870;-64
2022/09/03 05:00:20;;;;;;;;;4.20;4.20;27.20;99.90;;;;;;4949981;28;8874;-68
2022/09/03 05:02:51;;;;;;;;;4.80;4.80;27.20;99.90;;;;;;4963148;28;8853;-69
2022/09/03 05:05:21;;;;;;;;;7.20;7.20;27.20;99.90;;;;;;4975862;28;8889;-65
2022/09/03 05:08:00;;;;;;;;;6.00;6.00;27.20;99.90;;;;;;4947313;28;8881;-69
2022/09/03 05:10:32;;;;;;;;;7.20;7.20;27.20;99.90;;;;;;4948574;28;8879;-69
2022/09/03 05:13:05;;;;;;;;;2.00;2.00;27.20;99.90;;;;;;4946685;28;9040;-64
2022/09/03 05:15:36;;;;;;;;;6.60;6.60;27.20;99.90;;;;;;4947623;28;8874;-64
2022/09/03 05:18:08;;;;;;;;;6.00;6.00;27.10;99.90;;;;;;4960183;28;9808;-64
2022/09/03 05:20:39;;;;;;;;;7.00;7.00;27.10;99.90;;;;;;4945860;28;8876;-64
2022/09/03 05:23:14;;;;;;;;;6.80;5.40;27.10;99.90;;;;;;4947826;28;8850;-65
2022/09/03 05:25:58;;;;;;;;;5.80;5.80;27.10;99.90;;;;;;4948194;28;8913;-65
2022/09/03 05:28:29;;;;;;;;;4.80;4.80;27.20;99.90;;;;;;4945583;28;8952;-69
2022/09/03 05:31:06;;;;;;;;;4.60;4.60;27.10;99.90;;;;;;4948607;28;8901;-65
2022/09/03 05:33:42;;;;;;;;;6.00;6.00;27.10;99.90;;;;;;4945754;28;8873;-65
2022/09/03 05:36:18;;;;;;;;;6.80;6.80;27.10;99.90;;;;;;4944430;28;8846;-66
2022/09/03 05:38:56;;;;;;;;;6.00;6.00;27.10;99.90;;;;;;4942485;28;8854;-68
2022/09/03 05:41:32;;;;;;;;;6.00;6.00;27.10;99.90;;;;;;4945759;28;8866;-65
2022/09/03 05:44:02;;;;;;;;;7.20;7.20;27.10;99.90;;;;;;4931128;28;10012;-68
2022/09/03 05:46:36;;;;;;;;;6.60;6.60;27.10;99.90;;;;;;4949653;28;8902;-70
2022/09/03 05:49:07;;;;;;;;;6.20;6.20;27.00;99.90;;;;;;4947732;28;8879;-65
2022/09/03 05:51:41;;;;;;;;;5.60;5.60;27.00;99.90;;;;;;4949271;28;8839;-66
2022/09/03 05:54:12;;;;;;;;;6.00;6.00;27.00;99.90;;;;;;4950815;28;8859;-68
2022/09/03 05:56:47;;;;;;;;;4.60;4.60;27.00;99.90;;;;;;4954123;28;8835;-68
2022/09/03 05:59:19;;;;;;;;;6.00;6.00;27.00;99.90;;;;;;4952256;28;8862;-69
2022/09/03 06:01:51;;;;;;;;;5.60;5.60;27.00;99.90;;;;;;4949794;28;10139;-69
2022/09/03 06:04:28;;;;;;;;;5.00;5.00;27.00;99.90;;;;;;4945430;28;8867;-69
2022/09/03 06:07:01;;;;;;;;;7.00;6.00;27.00;99.90;;;;;;4929358;28;9004;-69
2022/09/03 06:09:33;;;;;;;;;6.00;6.00;26.90;99.90;;;;;;4946478;28;8900;-69
2022/09/03 06:12:11;;;;;;;;;7.40;7.40;26.90;99.90;;;;;;4948987;28;8867;-68
2022/09/03 06:14:44;;;;;;;;;5.80;5.80;26.90;99.90;;;;;;4958106;28;8822;-65
2022/09/03 06:17:16;;;;;;;;;5.40;5.40;26.80;99.90;;;;;;4944170;28;9048;-67
2022/09/03 06:19:46;;;;;;;;;6.00;6.00;26.90;99.90;;;;;;4940777;28;8875;-69
2022/09/03 06:22:17;;;;;;;;;6.00;6.00;26.90;99.90;;;;;;4945249;28;8839;-69
2022/09/03 06:25:03;;;;;;;;;7.40;7.40;26.90;99.90;;;;;;4944841;28;9748;-65
2022/09/03 06:27:34;;;;;;;;;6.40;6.40;26.90;99.90;;;;;;4960309;28;8839;-67
2022/09/03 06:30:06;;;;;;;;;6.80;6.80;26.90;99.90;;;;;;4943945;28;8874;-64
2022/09/03 06:32:44;;;;;;;;;5.00;5.00;26.80;99.90;;;;;;4943773;28;9001;-65
2022/09/03 06:35:15;;;;;;;;;6.60;6.60;26.80;99.90;;;;;;4943857;28;8882;-68
2022/09/03 06:37:46;;;;;;;;;6.40;6.40;26.80;99.90;;;;;;4957480;28;8874;-68
2022/09/03 06:40:21;;;;;;;;;5.40;5.40;26.80;99.90;;;;;;4944969;28;8870;-68
2022/09/03 06:43:01;;;;;;;;;5.80;5.80;26.70;99.90;;;;;;4943281;28;9545;-68
2022/09/03 06:45:31;;;;;;;;;8.00;8.00;26.70;99.90;;;;;;4942984;28;8859;-66
2022/09/03 06:48:02;;;;;;;;;7.00;7.00;26.70;99.90;;;;;;4946488;28;8854;-66
2022/09/03 06:50:33;;;;;;;;;6.20;6.20;26.70;99.90;;;;;;4943659;28;8901;-65
2022/09/03 06:53:03;;;;;;;;;5.60;5.60;26.70;99.90;;;;;;4942560;28;8843;-65
2022/09/03 06:55:34;;;;;;;;;8.40;6.80;26.80;99.90;;;;;;4942594;28;8839;-65
2022/09/03 06:58:09;;;;;;;;;6.80;6.80;26.70;99.90;;;;;;4946277;28;8925;-65
2022/09/03 07:00:41;;;;;;;;;7.00;7.00;26.70;99.90;;;;;;4945660;28;10147;-65
2022/09/03 07:03:20;;;;;;;;;7.40;7.40;26.70;99.90;;;;;;4947966;28;8910;-69
2022/09/03 07:05:50;;;;;;;;;7.20;7.20;26.70;99.90;;;;;;4940623;28;8830;-70
2022/09/03 07:08:21;;;;;;;;;6.00;6.00;26.60;99.90;;;;;;4945574;28;8879;-67
2022/09/03 07:10:52;;;;;;;;;5.60;5.60;26.60;99.90;;;;;;4943759;28;8867;-66
2022/09/03 07:13:22;;;;;;;;;8.00;8.00;26.60;99.90;;;;;;4944109;28;8815;-68
2022/09/03 07:16:10;;;;;;;;;7.20;7.20;26.60;99.90;;;;;;4944735;28;8863;-70
2022/09/03 07:18:45;;;;;;;;;5.20;5.20;26.50;99.90;;;;;;4946972;28;8882;-68
2022/09/03 07:21:20;;;;;;;;;5.40;5.40;26.60;99.90;;;;;;4944806;28;8855;-68
2022/09/03 07:23:53;;;;;;;;;6.20;6.20;26.60;99.90;;;;;;4945981;28;8869;-66
2022/09/03 07:26:31;;;;;;;;;7.20;5.40;26.60;99.90;;;;;;4945223;28;9596;-65
2022/09/03 07:29:02;;;;;;;;;6.20;6.20;26.60;99.90;;;;;;4944972;28;9627;-66
2022/09/03 07:31:39;;;;;;;;;6.00;6.00;26.50;99.90;;;;;;4969113;28;8843;-65
2022/09/03 07:34:11;;;;;;;;;6.00;6.00;26.50;99.90;;;;;;4999317;28;8842;-69
2022/09/03 07:36:49;;;;;;;;;6.60;6.60;26.50;99.90;;;;;;4981199;28;8865;-68
2022/09/03 07:39:19;;;;;;;;;5.00;5.00;26.50;99.90;;;;;;4973130;28;8929;-68
2022/09/03 07:41:49;;;;;;;;;6.80;6.80;26.50;99.90;;;;;;4983115;28;8847;-68
2022/09/03 07:44:23;;;;;;;;;5.40;5.40;26.50;99.90;;;;;;4983335;28;8863;-66
2022/09/03 07:46:56;;;;;;;;;6.00;6.00;26.50;99.90;;;;;;4978000;28;8858;-65
2022/09/03 07:49:26;;;;;;;;;6.00;6.00;26.50;99.90;;;;;;4965869;28;9415;-66
2022/09/03 07:51:56;;;;;;;;;5.80;5.80;26.50;99.90;;;;;;4972867;28;8902;-65
2022/09/03 07:54:26;;;;;;;;;5.80;5.80;26.50;99.90;;;;;;4974475;28;8874;-69
2022/09/03 07:57:01;;;;;;;;;5.60;5.60;26.40;99.90;;;;;;4968598;28;8873;-69
2022/09/03 07:59:33;;;;;;;;;7.00;7.00;26.40;99.90;;;;;;4976119;28;8866;-65
2022/09/03 08:02:04;;;;;;;;;5.40;5.40;26.40;99.90;;;;;;4978496;28;8971;-66
2022/09/03 08:04:37;;;;;;;;;6.00;6.00;26.40;99.90;;;;;;4994268;28;8866;-65
2022/09/03 08:07:09;;;;;;;;;8.00;7.00;26.40;99.90;;;;;;4982125;28;8865;-66
2022/09/03 08:09:42;;;;;;;;;2.80;2.80;26.40;99.90;;;;;;4982876;28;8881;-69
2022/09/03 08:12:12;;;;;;;;;6.40;6.40;26.40;99.90;;;;;;4978556;28;9012;-68
2022/09/03 08:14:44;;;;;;;;;6.00;6.00;26.40;99.90;;;;;;4968676;28;8899;-65
2022/09/03 08:17:19;;;;;;;;;6.00;6.00;26.40;99.90;;;;;;4975944;28;8886;-66
2022/09/03 08:19:56;;;;;;;;;4.80;4.80;26.30;99.90;;;;;;4977103;28;9311;-69
2022/09/03 08:22:26;;;;;;;;;7.00;7.00;26.30;99.90;;;;;;4981842;28;8842;-69
2022/09/03 08:24:57;;;;;;;;;4.80;4.80;26.30;99.90;;;;;;4993356;28;8863;-65
2022/09/03 08:27:29;;;;;;;;;5.00;5.00;26.30;99.90;;;;;;4964303;28;9768;-65
2022/09/03 08:30:03;;;;;;;;;6.40;6.40;26.20;99.90;;;;;;4977230;28;9001;-65
2022/09/03 08:32:35;;;;;;;;;6.20;6.20;26.20;99.90;;;;;;4992908;28;8846;-66
2022/09/03 08:35:08;;;;;;;;;6.20;6.20;26.10;99.90;;;;;;4978251;28;8858;-69
2022/09/03 08:37:43;;;;;;;;;5.00;5.00;26.10;99.90;;;;;;4995752;28;8847;-69
2022/09/03 08:40:16;;;;;;;;;5.20;5.20;26.00;99.90;;;;;;4979900;28;8909;-65
2022/09/03 08:43:04;;;;;;;;;5.75;5.75;26.10;99.90;;;;;;4981256;28;8882;-65
2022/09/03 08:45:37;;;;;;;;;6.00;6.00;26.00;99.90;;;;;;4978474;28;9628;-66
2022/09/03 08:48:18;;;;;;;;;6.00;6.00;26.00;99.90;;;;;;4972974;28;8905;-69
2022/09/03 08:50:58;;;;;;;;;5.60;5.60;26.00;99.90;;;;;;4995005;28;8839;-69
2022/09/03 08:53:34;;;;;;;;;7.20;7.20;26.00;99.90;;;;;;4976992;28;8878;-64
2022/09/03 08:56:12;;;;;;;;;7.00;7.00;26.00;99.90;;;;;;5005059;28;8884;-66
2022/09/03 08:58:43;;;;;;;;;6.00;6.00;25.90;99.90;;;;;;4980972;28;8870;-69
2022/09/03 09:01:46;;;;;;;;;6.00;6.00;25.90;99.90;;;;;;4978178;28;8997;-69
2022/09/03 09:04:30;;;;;;;;;7.00;5.80;26.00;99.90;;;;;;4978380;28;8997;-68
2022/09/03 09:07:04;;;;;;;;;7.40;5.80;25.90;99.90;;;;;;4979174;28;8904;-67
2022/09/03 09:10:07;;;;;;;;;5.60;5.60;26.00;99.90;;;;;;4977853;28;8866;-68
2022/09/03 09:12:43;;;;;;;;;6.50;6.50;26.00;99.90;;;;;;4978975;28;8847;-69
2022/09/03 09:15:47;;;;;;;;;5.00;5.00;25.90;99.90;;;;;;4977485;28;8879;-69
2022/09/03 09:18:46;;;;;;;;;6.00;6.00;25.90;99.90;;;;;;4979053;28;8877;-68
2022/09/03 09:21:33;;;;;;;;;4.00;4.00;25.80;99.90;;;;;;4974914;28;9557;-68
2022/09/03 09:24:12;;;;;;;;;6.60;6.60;25.80;99.90;;;;;;4977522;28;9357;-68
2022/09/03 09:26:42;;;;;;;;;4.60;4.60;25.90;99.90;;;;;;4976350;28;8870;-68
2022/09/03 09:29:14;;;;;;;;;6.00;6.00;25.90;99.90;;;;;;4977173;28;8867;-69
2022/09/03 09:31:46;;;;;;;;;4.60;4.60;25.80;99.90;;;;;;4977348;28;8863;-69
2022/09/03 09:34:16;;;;;;;;;6.20;6.20;25.80;99.90;;;;;;4993327;28;8896;-66
2022/09/03 09:36:56;;;;;;;;;5.60;5.60;25.80;99.90;;;;;;4974614;28;8881;-66
2022/09/03 09:39:26;;;;;;;;;7.00;7.00;25.80;99.90;;;;;;4974341;28;8862;-68
2022/09/03 09:42:12;;;;;;;;;6.20;6.20;25.80;99.90;;;;;;4990368;28;10509;-68
2022/09/03 09:44:44;;;;;;;;;6.00;6.00;25.80;99.90;;;;;;4991626;28;8866;-65
2022/09/03 09:47:34;;;;;;;;;5.00;5.00;25.80;99.90;;;;;;4978101;28;8862;-66
2022/09/03 09:50:17;;;;;;;;;6.60;6.60;25.80;99.90;;;;;;4993240;28;8863;-68
2022/09/03 09:53:07;;;;;;;;;6.40;6.40;25.80;99.90;;;;;;4990974;28;8854;-68
2022/09/03 09:55:51;;;;;;;;;5.60;5.60;25.80;99.90;;;;;;4993673;28;8913;-68
2022/09/03 09:58:27;;;;;;;;;5.00;5.00;25.80;99.90;;;;;;4977850;28;8866;-67
2022/09/03 10:01:12;;;;;;;;;3.00;3.00;25.80;99.90;;;;;;4978211;28;8854;-65
2022/09/03 10:03:56;;;;;;;;;6.20;6.20;25.70;99.90;;;;;;4976393;28;8866;-66
2022/09/03 10:09:23;;;;;;;;;5.20;5.20;25.80;99.90;;;;;;4978510;28;8920;-68
2022/09/03 10:12:28;;;;;;;;;8.00;8.00;25.70;99.90;;;;;;4994928;28;8869;-68
2022/09/03 10:15:12;;;;;;;;;8.00;6.60;25.70;99.90;;;;;;4979613;28;8882;-69
2022/09/03 10:17:59;;;;;;;;;5.60;5.60;25.70;99.90;;;;;;4972910;28;8850;-69
2022/09/03 10:20:48;;;;;;;;;5.40;5.40;25.70;99.90;;;;;;4994704;28;8882;-65
2022/09/03 10:23:29;;;;;;;;;6.75;6.25;25.70;99.90;;;;;;4971629;28;8861;-69
2022/09/03 10:26:29;;;;;;;;;5.40;5.40;25.70;99.90;;;;;;4978361;28;8885;-68
2022/09/03 10:29:04;;;;;;;;;5.20;5.20;25.70;99.90;;;;;;4972328;28;8898;-65
2022/09/03 10:32:11;;;;;;;;;5.40;5.40;25.70;99.90;;;;;;4976898;28;8859;-65
2022/09/03 10:35:03;;;;;;;;;6.00;6.00;25.70;99.90;;;;;;4973811;28;9621;-67
2022/09/03 10:37:54;;;;;;;;;5.80;5.80;25.70;99.90;;;;;;4988973;28;8830;-68
2022/09/03 10:41:02;;;;;;;;;5.00;5.00;25.60;99.90;;;;;;4976605;28;8881;-69
2022/09/03 10:44:07;;;;;;;;;7.80;7.80;25.60;99.90;;;;;;4975632;28;8858;-65
2022/09/03 10:46:48;;;;;;;;;7.00;7.00;25.60;99.90;;;;;;4976708;28;8916;-66
2022/09/03 10:49:19;;;;;;;;;6.60;6.20;25.70;99.90;;;;;;4977014;28;8882;-66
2022/09/03 10:52:05;;;;;;;;;6.80;6.80;25.70;99.90;;;;;;4971126;28;8881;-66
2022/09/03 10:54:48;;;;;;;;;7.20;7.20;25.60;99.90;;;;;;4979840;28;8867;-68
2022/09/03 10:57:37;;;;;;;;;7.00;7.00;25.60;99.90;;;;;;4972270;28;8877;-68
2022/09/03 11:00:11;;;;;;;;;8.00;8.00;25.60;99.90;;;;;;4977786;28;8872;-69
2022/09/03 11:03:12;;;;;;;;;6.40;6.40;25.50;99.90;;;;;;4975735;28;8870;-70
2022/09/03 11:05:56;;;;;;;;;4.20;4.20;25.60;99.90;;;;;;4981203;28;8873;-68
2022/09/03 11:08:43;;;;;;;;;7.40;7.40;25.50;99.90;;;;;;4976175;28;8849;-66
2022/09/03 11:11:32;;;;;;;;;7.40;7.40;25.50;99.90;;;;;;4980305;28;8859;-66
2022/09/03 11:14:07;;;;;;;;;5.40;5.40;25.50;99.90;;;;;;4976692;28;8871;-68
2022/09/03 11:16:47;;;;;;;;;6.80;6.80;25.50;99.90;;;;;;4977776;28;8847;-68
2022/09/03 11:19:25;;;;;;;;;6.00;6.00;25.50;99.90;;;;;;4979435;28;8866;-69
2022/09/03 11:21:55;;;;;;;;;6.80;5.80;25.50;99.90;;;;;;4993236;28;8879;-67
2022/09/03 11:24:31;;;;;;;;;7.40;7.40;25.50;99.90;;;;;;4981081;28;10179;-69
2022/09/03 11:27:03;;;;;;;;;7.60;7.60;25.50;99.90;;;;;;4978697;28;8874;-68
2022/09/03 11:29:45;;;;;;;;;8.00;8.00;25.50;99.90;;;;;;4978414;28;8862;-66
2022/09/03 11:32:39;;;;;;;;;6.80;6.80;25.50;99.90;;;;;;4976889;28;8851;-65
2022/09/03 11:35:35;;;;;;;;;7.00;7.00;25.40;99.90;;;;;;4970192;28;8865;-66
2022/09/03 11:38:20;;;;;;;;;5.60;5.60;25.40;99.90;;;;;;4977530;28;9004;-66
2022/09/03 11:41:14;;;;;;;;;6.00;6.00;25.40;99.90;;;;;;4980073;28;8897;-66
2022/09/03 11:43:48;;;;;;;;;7.60;7.60;25.40;99.90;;;;;;4980998;28;8896;-66
2022/09/03 11:46:22;;;;;;;;;5.25;5.25;25.40;99.90;;;;;;4981280;28;8866;-65
2022/09/03 11:48:57;;;;;;;;;7.00;7.00;25.40;99.90;;;;;;4982753;28;8858;-69
2022/09/03 11:51:32;;;;;;;;;6.75;6.75;25.30;99.90;;;;;;4983008;28;8890;-69
2022/09/03 11:54:05;;;;;;;;;7.40;7.40;25.30;99.90;;;;;;4976791;28;8855;-65
2022/09/03 11:56:41;;;;;;;;;6.20;6.20;25.40;99.90;;;;;;4981472;28;8892;-65
2022/09/03 11:59:12;;;;;;;;;6.00;6.00;25.40;99.90;;;;;;4963907;28;8865;-68
2022/09/03 12:01:51;;;;;;;;;5.00;5.00;25.40;99.90;;;;;;4979536;28;8846;-69
2022/09/03 12:04:33;;;;;;;;;6.00;6.00;25.40;99.90;;;;;;4977372;28;8877;-64
2022/09/03 12:07:21;;;;;;;;;8.75;8.75;25.40;99.90;;;;;;4994387;28;9850;-65
2022/09/03 12:10:17;;;;;;;;;7.00;7.00;25.40;99.90;;;;;;4981507;28;8862;-67
2022/09/03 12:13:03;;;;;;;;;6.00;6.00;25.40;99.90;;;;;;4979538;28;8894;-68
2022/09/03 12:16:35;;;;;;;;;8.40;8.40;25.40;99.90;;;;;;4980309;28;8981;-69
2022/09/03 12:19:29;;;;;;;;;8.25;8.25;25.30;99.90;;;;;;4959998;28;9562;-69
2022/09/03 12:22:01;;;;;;;;;7.75;7.75;25.30;99.90;;;;;;4984036;28;8862;-68
2022/09/03 12:24:36;;;;;;;;;8.40;8.40;25.30;99.90;;;;;;4980079;28;8885;-64
2022/09/03 12:27:12;;;;;;;;;7.50;7.50;25.30;99.90;;;;;;4963379;28;8865;-65
2022/09/03 12:29:59;;;;;;;;;6.75;6.75;25.40;99.90;;;;;;4978092;28;8866;-66
2022/09/03 12:32:35;;;;;;;;;6.75;6.75;25.40;99.90;;;;;;4980077;28;8866;-65
2022/09/03 12:35:20;;;;;;;;;7.00;7.00;25.30;99.90;;;;;;4980362;28;8901;-65
2022/09/03 12:38:13;;;;;;;;;8.20;8.20;25.30;99.90;;;;;;4981731;28;8852;-66
2022/09/03 12:40:46;;;;;;;;;7.00;7.00;25.30;99.90;;;;;;4979724;28;8851;-65
2022/09/03 12:43:37;;;;;;;;;9.00;9.00;25.30;99.90;;;;;;4976095;28;8861;-64
2022/09/03 12:46:15;;;;;;;;;9.25;9.25;25.30;99.90;;;;;;4979435;28;8886;-66
2022/09/03 12:49:04;;;;;;;;;9.25;9.25;25.30;99.90;;;;;;4981032;28;8843;-66
2022/09/03 12:52:08;;;;;;;;;7.25;7.25;25.40;99.90;;;;;;4977940;28;8875;-65
2022/09/03 12:55:06;;;;;;;;;5.50;5.50;25.30;99.90;;;;;;4992601;28;8997;-66
2022/09/03 12:57:53;;;;;;;;;8.80;8.80;25.30;99.90;;;;;;4975177;28;8886;-65
2022/09/03 13:00:33;;;;;;;;;7.75;7.75;25.30;99.90;;;;;;4976788;28;8870;-68
2022/09/03 13:03:24;;;;;;;;;8.25;8.25;25.40;99.90;;;;;;4979569;28;8869;-68
2022/09/03 13:06:05;;;;;;;;;10.50;10.50;25.40;99.90;;;;;;4975083;28;8878;-68
2022/09/03 13:09:04;;;;;;;;;10.00;10.00;25.40;99.90;;;;;;4977312;28;8840;-65
2022/09/03 13:11:36;;;;;;;;;9.75;9.75;25.40;99.90;;;;;;4976939;28;9542;-66
2022/09/03 13:14:46;;;;;;;;;8.25;8.25;25.30;99.90;;;;;;4993266;28;8896;-69
2022/09/03 13:17:51;;;;;;;;;9.50;9.50;25.40;99.90;;;;;;4978648;28;8847;-71
2022/09/03 13:20:46;;;;;;;;;10.50;9.00;25.50;99.90;;;;;;4982412;28;8870;-64
2022/09/03 13:23:44;;;;;;;;;10.00;10.00;25.50;99.90;;;;;;4979527;28;8865;-67
2022/09/03 13:26:34;;;;;;;;;9.25;9.25;25.50;99.90;;;;;;4975077;28;8858;-68
2022/09/03 13:29:27;;;;;;;;;9.25;9.25;25.60;99.90;;;;;;4991674;28;9383;-68
2022/09/03 13:32:11;;;;;;;;;11.00;10.00;25.60;99.90;;;;;;4975877;28;8858;-69
2022/09/03 13:35:04;;;;;;;;;10.00;9.25;25.70;99.90;;;;;;4991858;28;8913;-66
2022/09/03 13:37:43;;;;;;;;;10.25;10.25;25.70;99.90;;;;;;4984671;28;8830;-66
2022/09/03 13:40:37;;;;;;;;;12.40;11.00;25.70;99.90;;;;;;4985589;28;8866;-65
2022/09/03 13:43:20;;;;;;;;;9.50;9.50;25.70;99.90;;;;;;4972586;28;9557;-69
2022/09/03 13:46:11;;;;;;;;;7.80;7.80;25.80;99.90;;;;;;4975961;28;8918;-68
2022/09/03 13:51:51;;;;;;;;;7.40;7.40;25.80;99.90;;;;;;4978604;28;8893;-68
2022/09/03 13:54:55;;;;;;;;;9.60;9.60;25.80;99.90;;;;;;4975088;28;8878;-66
2022/09/03 13:57:38;;;;;;;;;9.00;9.00;25.90;99.90;;;;;;4977542;28;8909;-66
2022/09/03 14:00:12;;;;;;;;;11.00;9.75;26.00;99.90;;;;;;4994559;28;8893;-68
2022/09/03 14:03:04;;;;;;;;;14.00;14.00;26.00;99.90;;;;;;4980413;28;8864;-68
2022/09/03 14:05:54;;;;;;;;;14.25;14.25;26.00;99.90;;;;;;4971044;28;8837;-68
2022/09/03 14:08:35;;;;;;;;;16.00;16.00;26.10;99.90;;;;;;4980046;28;8858;-68
2022/09/03 14:11:44;;;;;;;;;16.25;16.25;26.10;99.90;;;;;;4977110;28;8857;-69